createdAt,value
2019-05-01T00:00:00.888Z,8.80
2019-05-01T00:03:03.868Z,9.17
2019-05-01T00:06:01.952Z,9.53
2019-05-01T00:08:46.602Z,9.17
2019-05-01T00:11:31.178Z,8.87
2019-05-01T00:14:15.885Z,9.43
2019-05-01T00:17:00.455Z,8.73
2019-05-01T00:19:45.038Z,7.97
2019-05-01T00:22:29.604Z,9.10
2019-05-01T00:25:14.310Z,9.30
2019-05-01T00:27:59.106Z,9.27
2019-05-01T00:30:44.106Z,9.57
2019-05-01T00:33:29.153Z,9.43
2019-05-01T00:36:14.095Z,9.63
2019-05-01T00:38:59.231Z,8.53
2019-05-01T00:41:43.974Z,9.93
2019-05-01T00:44:28.783Z,9.93
2019-05-01T00:47:13.727Z,8.40
2019-05-01T00:49:58.643Z,9.30
2019-05-01T00:52:43.557Z,8.90
2019-05-01T00:55:39.145Z,9.43
2019-05-01T00:58:28.745Z,9.60
2019-05-01T01:01:32.042Z,10.60
2019-05-01T01:04:19.197Z,9.47
2019-05-01T01:07:04.428Z,9.50
2019-05-01T01:09:48.929Z,10.43
2019-05-01T01:12:34.099Z,8.70
2019-05-01T01:15:19.016Z,10.10
2019-05-01T01:18:04.177Z,10.57
2019-05-01T01:20:48.905Z,8.63
2019-05-01T01:23:33.776Z,10.10
2019-05-01T01:26:18.495Z,9.83
2019-05-01T01:29:03.147Z,9.77
2019-05-01T01:31:48.364Z,9.10
2019-05-01T01:34:33.050Z,9.17
2019-05-01T01:37:18.027Z,9.97
2019-05-01T01:40:04.321Z,9.73
2019-05-01T01:42:51.264Z,9.70
2019-05-01T01:45:40.617Z,9.63
2019-05-01T01:48:25.340Z,9.53
2019-05-01T01:51:10.457Z,8.87
2019-05-01T01:53:56.813Z,9.63
2019-05-01T01:56:41.585Z,10.93
2019-05-01T01:59:26.945Z,9.27
2019-05-01T02:02:13.704Z,10.50
2019-05-01T02:05:09.591Z,10.60
2019-05-01T02:07:55.010Z,9.47
2019-05-01T02:10:42.916Z,10.47
2019-05-01T02:13:27.125Z,11.03
2019-05-01T02:16:12.000Z,11.23
2019-05-01T02:18:56.993Z,10.70
2019-05-01T02:21:41.997Z,9.73
2019-05-01T02:24:27.283Z,10.47
2019-05-01T02:27:14.227Z,10.03
2019-05-01T02:30:01.139Z,10.43
2019-05-01T02:32:46.422Z,10.93
2019-05-01T02:35:32.509Z,10.27
2019-05-01T02:38:17.628Z,10.93
2019-05-01T02:41:02.634Z,10.73
2019-05-01T02:43:49.578Z,11.53
2019-05-01T02:46:35.530Z,11.07
2019-05-01T02:49:23.939Z,9.97
2019-05-01T02:52:10.361Z,11.37
2019-05-01T02:54:58.474Z,11.70
2019-05-01T02:57:43.725Z,10.47
2019-05-01T03:00:28.239Z,10.20
2019-05-01T03:03:13.195Z,10.57
2019-05-01T03:05:57.894Z,11.87
2019-05-01T03:08:43.079Z,10.97
2019-05-01T03:11:28.853Z,10.63
2019-05-01T03:14:16.646Z,10.40
2019-05-01T03:17:04.170Z,9.73
2019-05-01T03:19:50.710Z,10.57
2019-05-01T03:22:40.197Z,10.23
2019-05-01T03:25:24.789Z,9.80
2019-05-01T03:28:10.101Z,9.57
2019-05-01T03:30:56.056Z,9.07
2019-05-01T03:33:41.068Z,9.80
2019-05-01T03:36:26.324Z,10.07
2019-05-01T03:39:11.529Z,9.70
2019-05-01T03:41:57.039Z,9.70
2019-05-01T03:44:41.746Z,10.30
2019-05-01T03:47:26.487Z,8.63
2019-05-01T03:50:11.029Z,8.90
2019-05-01T03:52:55.696Z,9.37
2019-05-01T03:55:40.199Z,9.47
2019-05-01T03:58:25.094Z,9.53
2019-05-01T04:01:20.313Z,10.10
2019-05-01T04:04:07.473Z,8.67
2019-05-01T04:06:51.952Z,9.40
2019-05-01T04:09:36.945Z,8.13
2019-05-01T04:12:21.875Z,8.70
2019-05-01T04:15:06.924Z,9.07
2019-05-01T04:17:53.906Z,9.73
2019-05-01T04:20:39.278Z,8.97
2019-05-01T04:23:24.031Z,9.57
2019-05-01T04:26:09.016Z,9.67
2019-05-01T04:28:55.644Z,8.57
2019-05-01T04:31:42.600Z,8.60
2019-05-01T04:34:35.905Z,9.17
2019-05-01T04:37:22.917Z,13.97
2019-05-01T04:40:08.354Z,8.63
2019-05-01T04:42:53.279Z,10.77
2019-05-01T04:45:38.083Z,7.97
2019-05-01T04:48:23.203Z,8.33
2019-05-01T04:51:08.273Z,8.30
2019-05-01T04:53:53.222Z,8.77
2019-05-01T04:56:38.449Z,8.67
2019-05-01T04:59:23.555Z,8.47
2019-05-01T05:02:10.485Z,8.30
2019-05-01T05:04:55.577Z,7.83
2019-05-01T05:07:40.595Z,8.30
2019-05-01T05:10:26.221Z,7.97
2019-05-01T05:13:28.629Z,8.03
2019-05-01T05:16:17.668Z,8.07
2019-05-01T05:19:03.562Z,8.10
2019-05-01T05:21:49.143Z,8.07
2019-05-01T05:24:34.797Z,8.10
2019-05-01T05:27:19.521Z,7.33
2019-05-01T05:30:04.635Z,7.57
2019-05-01T05:32:51.224Z,7.10
2019-05-01T05:35:38.570Z,7.17
2019-05-01T05:38:43.800Z,7.00
2019-05-01T05:41:30.170Z,6.40
2019-05-01T05:44:15.152Z,7.20
2019-05-01T05:47:00.404Z,7.10
2019-05-01T05:49:45.458Z,6.20
2019-05-01T05:52:33.604Z,6.53
2019-05-01T05:55:26.286Z,6.40
2019-05-01T05:58:12.892Z,6.67
2019-05-01T06:01:03.418Z,6.67
2019-05-01T06:03:56.087Z,5.97
2019-05-01T06:06:46.409Z,5.63
2019-05-01T06:09:35.765Z,5.83
2019-05-01T06:12:29.052Z,5.10
2019-05-01T06:15:15.815Z,6.13
2019-05-01T06:18:04.076Z,6.90
2019-05-01T06:21:02.346Z,5.87
2019-05-01T06:23:52.719Z,6.30
2019-05-01T06:26:39.267Z,6.50
2019-05-01T06:29:23.001Z,6.70
2019-05-01T06:32:07.788Z,6.23
2019-05-01T06:34:52.802Z,5.60
2019-05-01T06:37:43.946Z,5.40
2019-05-01T06:40:37.468Z,5.03
2019-05-01T06:43:36.243Z,5.17
2019-05-01T06:46:31.750Z,5.73
2019-05-01T06:49:24.228Z,6.10
2019-05-01T06:52:08.388Z,5.40
2019-05-01T06:54:55.068Z,5.87
2019-05-01T06:57:43.721Z,5.83
2019-05-01T07:00:27.357Z,5.40
2019-05-01T09:33:21.914Z,11.63
2019-05-01T09:36:06.514Z,8.80
2019-05-01T09:38:51.285Z,9.30
2019-05-01T09:41:38.355Z,9.33
2019-05-01T09:44:22.945Z,8.80
2019-05-01T09:47:08.361Z,9.67
2019-05-01T09:49:55.611Z,8.85
2019-05-01T09:52:59.764Z,8.18
2019-05-01T09:56:03.301Z,8.83
2019-05-01T09:58:46.377Z,7.85
2019-05-01T10:01:32.937Z,8.68
2019-05-01T10:04:18.435Z,8.70
2019-05-01T10:07:04.147Z,9.40
2019-05-01T10:09:52.246Z,9.18
2019-05-01T10:12:35.618Z,9.28
2019-05-01T10:15:20.553Z,9.13
2019-05-01T10:18:06.606Z,9.15
2019-05-01T10:20:51.277Z,8.80
2019-05-01T10:23:36.156Z,8.68
2019-05-01T10:26:24.041Z,8.95
2019-05-01T10:29:14.712Z,8.75
2019-05-01T10:32:01.522Z,9.98
2019-05-01T10:34:57.536Z,9.90
2019-05-01T10:37:42.373Z,8.95
2019-05-01T10:40:32.215Z,10.03
2019-05-01T10:43:13.965Z,9.25
2019-05-01T10:45:59.068Z,9.28
2019-05-01T10:48:43.894Z,9.90
2019-05-01T10:51:28.782Z,9.55
2019-05-01T10:54:13.658Z,9.68
2019-05-01T10:56:58.866Z,10.13
2019-05-01T10:59:45.502Z,10.82
2019-05-01T11:02:30.273Z,10.45
2019-05-01T11:05:15.349Z,8.93
2019-05-01T11:08:00.282Z,10.82
2019-05-01T11:10:45.102Z,9.53
2019-05-01T11:13:29.955Z,10.70
2019-05-01T11:16:14.757Z,9.85
2019-05-01T11:18:59.601Z,10.60
2019-05-01T11:21:44.494Z,10.55
2019-05-01T11:24:29.361Z,10.65
2019-05-01T11:27:14.236Z,10.90
2019-05-01T11:29:59.254Z,9.88
2019-05-01T11:32:56.022Z,8.98
2019-05-01T11:35:45.147Z,10.23
2019-05-01T11:38:34.632Z,9.95
2019-05-01T11:41:36.004Z,10.45
2019-05-01T11:44:20.797Z,10.53
2019-05-01T11:47:05.667Z,11.05
2019-05-01T11:49:50.549Z,11.10
2019-05-01T11:52:35.414Z,11.12
2019-05-01T11:55:20.384Z,10.98
2019-05-01T11:58:05.392Z,10.50
2019-05-01T12:00:52.114Z,10.93
2019-05-01T12:03:36.829Z,11.60
2019-05-01T12:06:22.951Z,11.65
2019-05-01T12:09:08.463Z,11.20
2019-05-01T12:11:55.020Z,11.20
2019-05-01T12:14:39.871Z,10.93
2019-05-01T12:17:43.364Z,11.20
2019-05-01T12:20:28.115Z,11.15
2019-05-01T12:23:12.988Z,11.00
2019-05-01T12:25:57.990Z,11.40
2019-05-01T12:28:42.869Z,10.45
2019-05-01T12:31:27.965Z,12.10
2019-05-01T12:34:12.581Z,10.55
2019-05-01T12:37:16.085Z,9.58
2019-05-01T12:40:01.263Z,10.28
2019-05-01T12:42:46.217Z,9.75
2019-05-01T12:45:31.336Z,10.50
2019-05-01T12:48:16.090Z,10.28
2019-05-01T12:51:01.395Z,9.98
2019-05-01T12:53:48.376Z,11.25
2019-05-01T12:56:35.269Z,11.12
2019-05-01T12:59:20.466Z,11.60
2019-05-01T13:02:05.261Z,11.78
2019-05-01T13:04:50.214Z,29.42
2019-05-01T13:07:34.964Z,22.10
2019-05-01T13:10:19.952Z,12.55
2019-05-01T13:13:04.835Z,11.78
2019-05-01T13:15:49.635Z,10.88
2019-05-01T13:18:34.769Z,11.57
2019-05-01T13:21:19.609Z,10.20
2019-05-01T13:24:04.701Z,10.63
2019-05-01T13:26:51.215Z,10.30
2019-05-01T13:29:44.270Z,10.30
2019-05-01T13:32:33.831Z,10.85
2019-05-01T13:35:18.617Z,9.65
2019-05-01T13:38:03.691Z,10.50
2019-05-01T13:40:48.227Z,10.30
2019-05-01T13:43:33.289Z,10.95
2019-05-01T13:46:17.952Z,11.35
2019-05-01T13:49:03.074Z,10.25
2019-05-01T13:51:47.773Z,10.00
2019-05-01T13:54:32.631Z,9.93
2019-05-01T13:57:17.477Z,10.08
2019-05-01T14:00:04.984Z,9.35
2019-05-01T14:02:49.697Z,9.50
2019-05-01T14:05:34.567Z,9.23
2019-05-01T14:08:19.637Z,9.70
2019-05-01T14:11:04.584Z,9.40
2019-05-01T14:13:49.222Z,8.53
2019-05-01T14:16:33.955Z,9.20
2019-05-01T14:19:18.833Z,9.55
2019-05-01T14:22:05.648Z,9.85
2019-05-01T14:24:52.328Z,9.40
2019-05-01T14:27:37.104Z,8.63
2019-05-01T14:30:22.025Z,9.75
2019-05-01T14:33:06.745Z,8.68
2019-05-01T14:35:51.717Z,8.93
2019-05-01T14:38:36.743Z,8.18
2019-05-01T14:41:21.619Z,8.33
2019-05-01T14:44:06.375Z,8.53
2019-05-01T14:46:51.433Z,8.73
2019-05-01T14:49:36.314Z,8.60
2019-05-01T14:52:21.205Z,8.23
2019-05-01T14:55:06.704Z,8.48
2019-05-01T14:57:51.575Z,8.38
2019-05-01T15:00:37.789Z,7.95
2019-05-01T15:03:22.445Z,7.83
2019-05-01T15:06:07.467Z,9.33
2019-05-01T15:08:52.210Z,8.00
2019-05-01T15:11:38.016Z,8.23
2019-05-01T15:14:27.705Z,7.78
2019-05-01T15:17:20.396Z,7.50
2019-05-01T15:20:05.488Z,7.55
2019-05-01T15:22:50.362Z,7.50
2019-05-01T15:25:35.175Z,7.72
2019-05-01T15:28:20.046Z,7.55
2019-05-01T15:31:04.949Z,7.45
2019-05-01T15:33:49.746Z,7.35
2019-05-01T15:36:34.737Z,8.43
2019-05-01T15:39:30.498Z,7.33
2019-05-01T15:42:22.939Z,7.15
2019-05-01T15:45:08.015Z,7.45
2019-05-01T15:47:52.956Z,7.67
2019-05-01T15:50:37.938Z,8.25
2019-05-01T15:53:22.745Z,7.45
2019-05-01T15:56:07.866Z,8.05
2019-05-01T15:58:52.589Z,8.63
2019-05-01T16:01:37.418Z,7.17
2019-05-01T16:04:22.261Z,8.38
2019-05-01T16:07:07.148Z,7.62
2019-05-01T16:09:52.086Z,7.17
2019-05-01T16:12:38.923Z,7.55
2019-05-01T16:15:26.020Z,6.83
2019-05-01T16:18:10.798Z,8.10
2019-05-01T16:20:55.659Z,8.30
2019-05-01T16:23:40.427Z,7.67
2019-05-01T16:26:25.213Z,7.22
2019-05-01T16:29:10.162Z,7.75
2019-05-01T16:31:54.793Z,7.62
2019-05-01T16:34:39.801Z,8.40
2019-05-01T16:37:24.479Z,8.08
2019-05-01T16:40:17.789Z,7.80
2019-05-01T16:43:04.852Z,7.83
2019-05-01T16:45:49.959Z,7.53
2019-05-01T16:48:34.638Z,7.35
2019-05-01T16:51:19.912Z,7.55
2019-05-01T16:54:04.658Z,7.28
2019-05-01T16:56:49.687Z,7.50
2019-05-01T16:59:34.303Z,7.08
2019-05-01T17:02:26.929Z,6.33
2019-05-01T17:05:22.744Z,7.60
2019-05-01T17:08:09.606Z,7.12
2019-05-01T17:10:54.453Z,6.40
2019-05-01T17:13:39.690Z,7.03
2019-05-01T17:16:24.407Z,6.50
2019-05-01T17:19:09.310Z,7.05
2019-05-01T17:21:54.053Z,6.53
2019-05-01T17:24:39.253Z,5.72
2019-05-01T17:27:24.032Z,6.30
2019-05-01T17:30:14.694Z,5.92
2019-05-01T17:33:00.897Z,6.28
2019-05-01T17:35:46.099Z,6.27
2019-05-01T17:38:30.702Z,6.08
2019-05-01T17:41:15.461Z,5.37
2019-05-01T17:44:00.407Z,5.15
2019-05-01T17:46:46.838Z,4.75
2019-05-01T17:49:31.977Z,4.95
2019-05-01T17:52:17.016Z,5.03
2019-05-01T17:55:04.385Z,4.87
2019-05-01T17:57:49.330Z,4.97
2019-05-01T18:00:36.213Z,4.78
2019-05-01T18:03:39.636Z,4.90
2019-05-01T18:06:35.283Z,4.40
2019-05-01T18:09:20.260Z,4.97
2019-05-01T18:12:05.118Z,4.53
2019-05-01T18:14:49.852Z,4.67
2019-05-01T18:17:34.672Z,4.67
2019-05-01T18:20:19.459Z,4.43
2019-05-01T18:23:18.454Z,4.20
2019-05-01T18:26:08.807Z,4.40
2019-05-01T18:29:00.675Z,5.10
2019-05-01T18:31:43.492Z,4.60
2019-05-01T18:34:28.221Z,4.67
2019-05-01T18:37:17.698Z,5.17
2019-05-01T18:40:06.826Z,5.47
2019-05-01T18:42:51.463Z,4.77
2019-05-01T18:45:47.902Z,4.03
2019-05-01T18:48:33.154Z,4.90
2019-05-01T18:51:17.727Z,4.90
2019-05-01T18:54:02.695Z,4.40
2019-05-01T18:56:47.423Z,4.67
2019-05-01T18:59:32.118Z,4.27
2019-05-01T19:02:20.439Z,4.03
2019-05-01T19:05:08.803Z,5.00
2019-05-01T19:07:51.732Z,4.17
2019-05-01T19:10:36.734Z,4.63
2019-05-01T19:13:21.712Z,4.40
2019-05-01T19:16:08.145Z,4.80
2019-05-01T19:18:53.484Z,4.37
2019-05-01T19:21:41.811Z,4.17
2019-05-01T19:24:25.634Z,6.00
2019-05-01T19:27:14.331Z,5.27
2019-05-01T19:29:57.993Z,5.13
2019-05-01T19:32:43.205Z,4.57
2019-05-01T19:35:28.974Z,5.73
2019-05-01T19:38:15.810Z,5.43
2019-05-01T19:41:03.640Z,4.97
2019-05-01T19:43:47.612Z,5.37
2019-05-01T19:46:32.213Z,5.30
2019-05-01T19:49:17.249Z,4.80
2019-05-01T19:52:02.239Z,5.00
2019-05-01T19:54:47.068Z,5.30
2019-05-01T19:57:31.989Z,6.23
2019-05-01T20:00:38.837Z,5.77
2019-05-01T20:03:24.032Z,4.90
2019-05-01T20:06:08.719Z,4.47
2019-05-01T20:08:53.513Z,4.63
2019-05-01T20:11:38.347Z,4.90
2019-05-01T20:14:23.331Z,5.50
2019-05-01T20:17:09.931Z,5.07
2019-05-01T20:19:55.248Z,4.93
2019-05-01T20:22:40.031Z,4.17
2019-05-01T20:25:24.900Z,3.97
2019-05-01T20:28:09.889Z,4.80
2019-05-01T20:30:54.590Z,5.13
2019-05-01T20:33:44.121Z,5.20
2019-05-01T20:36:26.121Z,5.03
2019-05-01T20:39:11.251Z,5.03
2019-05-01T20:41:56.106Z,4.10
2019-05-01T20:44:40.840Z,4.70
2019-05-01T20:47:34.829Z,5.03
2019-05-01T20:50:13.961Z,4.90
2019-05-01T20:52:58.918Z,4.07
2019-05-01T20:55:45.832Z,4.43
2019-05-01T20:58:30.865Z,4.90
2019-05-01T21:01:15.740Z,5.00
2019-05-01T21:04:05.447Z,5.20
2019-05-01T21:07:10.527Z,5.30
2019-05-01T21:09:59.132Z,4.90
2019-05-01T21:12:44.401Z,5.50
2019-05-01T21:15:29.331Z,4.63
2019-05-01T21:18:14.560Z,5.37
2019-05-01T21:20:59.487Z,4.83
2019-05-01T21:23:48.119Z,5.47
2019-05-01T21:26:33.429Z,4.93
2019-05-01T21:29:18.185Z,5.07
2019-05-01T21:32:03.591Z,5.33
2019-05-01T21:34:48.483Z,5.20
2019-05-01T21:37:33.286Z,5.13
2019-05-01T21:40:18.181Z,5.23
2019-05-01T21:43:03.196Z,5.50
2019-05-01T21:45:47.786Z,5.10
2019-05-01T21:48:33.462Z,5.80
2019-05-01T21:51:18.630Z,6.00
2019-05-01T21:54:03.406Z,5.20
2019-05-01T21:56:47.883Z,5.40
2019-05-01T21:59:32.398Z,5.63
2019-05-01T22:02:17.277Z,5.97
2019-05-01T22:05:04.957Z,4.37
2019-05-01T22:07:50.107Z,5.83
2019-05-01T22:10:35.423Z,6.00
2019-05-01T22:13:24.054Z,5.33
2019-05-01T22:16:11.661Z,5.53
2019-05-01T22:19:01.198Z,5.67
2019-05-01T22:21:48.448Z,6.03
2019-05-01T22:24:41.118Z,6.03
2019-05-01T22:27:39.610Z,5.37
2019-05-01T22:30:26.452Z,5.53
2019-05-01T22:33:12.103Z,6.27
2019-05-01T22:35:56.547Z,5.57
2019-05-01T22:38:41.497Z,6.83
2019-05-01T22:41:26.416Z,6.00
2019-05-01T22:44:12.734Z,6.07
2019-05-01T22:46:58.145Z,6.07
2019-05-01T22:49:42.916Z,6.87
2019-05-01T22:52:27.754Z,6.70
2019-05-01T22:55:13.917Z,6.83
2019-05-01T22:57:59.026Z,7.03
2019-05-01T23:00:46.090Z,7.43
2019-05-01T23:03:32.717Z,7.83
2019-05-01T23:06:18.075Z,6.77
2019-05-01T23:09:05.147Z,7.30
2019-05-01T23:11:50.020Z,7.60
2019-05-01T23:14:35.205Z,7.50
2019-05-01T23:17:21.893Z,8.00
2019-05-01T23:20:08.586Z,8.63
2019-05-01T23:22:52.986Z,8.47
2019-05-01T23:25:41.145Z,7.50
2019-05-01T23:28:24.418Z,8.03
2019-05-01T23:31:09.256Z,7.87
2019-05-01T23:33:54.273Z,8.53
2019-05-01T23:36:47.070Z,8.47
2019-05-01T23:39:39.794Z,8.60
2019-05-01T23:42:18.774Z,8.80
2019-05-01T23:45:04.375Z,8.17
2019-05-01T23:47:48.620Z,7.63
2019-05-01T23:50:33.670Z,7.73
2019-05-01T23:53:18.458Z,8.50
2019-05-01T23:56:03.499Z,8.47
2019-05-01T23:58:48.372Z,8.17
